createdAt,value
2023-03-07T00:00:08.191Z,5.05
2023-03-07T00:02:35.123Z,4.99
2023-03-07T00:05:01.808Z,4.99
2023-03-07T00:07:28.530Z,4.94
2023-03-07T00:09:55.126Z,4.96
2023-03-07T00:12:22.314Z,4.98
2023-03-07T00:14:48.999Z,4.88
2023-03-07T00:17:15.638Z,5.01
2023-03-07T00:19:43.596Z,4.86
2023-03-07T00:22:14.201Z,4.87
2023-03-07T00:24:41.412Z,4.89
2023-03-07T00:27:08.822Z,4.82
2023-03-07T00:29:35.453Z,4.92
2023-03-07T00:32:02.354Z,4.83
2023-03-07T00:34:29.082Z,4.84
2023-03-07T00:36:55.817Z,4.82
2023-03-07T00:39:22.646Z,4.80
2023-03-07T00:41:49.427Z,4.83
2023-03-07T00:44:16.156Z,4.80
2023-03-07T00:46:42.815Z,4.66
2023-03-07T00:49:09.821Z,4.70
2023-03-07T00:51:36.418Z,4.73
2023-03-07T00:54:03.926Z,4.72
2023-03-07T00:56:30.977Z,4.83
2023-03-07T00:58:57.715Z,4.87
2023-03-07T01:01:25.604Z,4.90
2023-03-07T01:03:53.863Z,4.95
2023-03-07T01:06:23.810Z,4.93
2023-03-07T01:08:51.631Z,4.91
2023-03-07T01:11:18.507Z,4.94
2023-03-07T01:13:45.765Z,4.90
2023-03-07T01:16:16.915Z,4.84
2023-03-07T01:18:45.079Z,4.86
2023-03-07T01:21:21.723Z,4.82
2023-03-07T01:23:49.674Z,4.91
2023-03-07T01:26:22.354Z,4.93
2023-03-07T01:28:51.449Z,4.91
2023-03-07T01:31:18.214Z,4.86
2023-03-07T01:33:47.142Z,5.00
2023-03-07T01:36:30.247Z,4.98
2023-03-07T01:39:10.317Z,4.81
2023-03-07T01:41:40.101Z,4.90
2023-03-07T01:44:19.569Z,4.91
2023-03-07T01:46:54.399Z,4.86
2023-03-07T01:49:31.459Z,4.86
2023-03-07T01:52:11.231Z,4.76
2023-03-07T01:54:48.915Z,4.66
2023-03-07T01:57:24.841Z,4.67
2023-03-07T01:59:56.035Z,4.59
2023-03-07T02:02:24.463Z,4.62
2023-03-07T02:05:07.061Z,4.74
2023-03-07T02:07:41.135Z,4.62
2023-03-07T02:10:10.559Z,4.72
2023-03-07T02:12:38.382Z,4.60
2023-03-07T02:15:05.637Z,4.52
2023-03-07T02:17:32.408Z,4.43
2023-03-07T02:20:02.648Z,4.26
2023-03-07T02:22:30.690Z,4.38
2023-03-07T02:25:02.612Z,4.38
2023-03-07T02:27:35.087Z,4.43
2023-03-07T02:30:04.068Z,4.33
2023-03-07T02:32:31.484Z,4.33
2023-03-07T02:34:58.265Z,4.36
2023-03-07T02:37:38.419Z,4.28
2023-03-07T02:40:11.692Z,4.21
2023-03-07T02:42:42.230Z,4.34
2023-03-07T02:45:15.521Z,4.30
2023-03-07T02:47:44.168Z,4.40
2023-03-07T02:50:14.525Z,4.41
2023-03-07T02:52:43.857Z,4.35
2023-03-07T02:55:11.107Z,4.43
2023-03-07T02:57:42.194Z,4.35
2023-03-07T03:00:11.916Z,4.41
2023-03-07T03:02:38.778Z,4.35
2023-03-07T03:05:06.030Z,4.36
2023-03-07T03:07:32.607Z,4.43
2023-03-07T03:10:02.148Z,4.47
2023-03-07T03:12:31.242Z,4.44
2023-03-07T03:14:58.660Z,4.38
2023-03-07T03:17:25.365Z,4.21
2023-03-07T03:19:52.048Z,4.37
2023-03-07T03:22:18.765Z,4.31
2023-03-07T03:24:47.605Z,4.26
2023-03-07T03:27:16.846Z,4.37
2023-03-07T03:29:45.251Z,4.35
2023-03-07T03:32:12.433Z,4.33
2023-03-07T03:34:42.075Z,4.23
2023-03-07T03:37:08.756Z,4.32
2023-03-07T03:39:35.619Z,4.24
2023-03-07T03:42:02.523Z,4.17
2023-03-07T03:44:29.796Z,3.99
2023-03-07T03:46:57.538Z,4.18
2023-03-07T03:49:24.697Z,4.23
2023-03-07T03:51:53.882Z,4.23
2023-03-07T03:54:20.746Z,4.06
2023-03-07T03:56:47.363Z,4.16
2023-03-07T03:59:14.164Z,3.98
2023-03-07T04:01:41.397Z,4.15
2023-03-07T04:04:08.422Z,4.27
2023-03-07T04:06:35.380Z,4.27
2023-03-07T04:09:04.707Z,4.34
2023-03-07T04:11:32.470Z,4.22
2023-03-07T04:13:59.550Z,4.13
2023-03-07T04:16:26.491Z,4.08
2023-03-07T04:18:54.058Z,4.08
2023-03-07T04:21:22.360Z,4.08
2023-03-07T04:23:55.257Z,3.97
2023-03-07T04:26:23.748Z,3.98
2023-03-07T04:28:50.405Z,4.00
2023-03-07T04:31:28.722Z,4.09
2023-03-07T04:33:58.293Z,4.01
2023-03-07T04:36:25.254Z,3.86
2023-03-07T04:38:52.766Z,3.96
2023-03-07T04:41:23.056Z,4.05
2023-03-07T04:43:53.803Z,3.98
2023-03-07T04:46:22.874Z,3.90
2023-03-07T04:48:50.477Z,3.83
2023-03-07T04:51:18.112Z,3.76
2023-03-07T04:53:45.040Z,3.79
2023-03-07T04:56:13.972Z,3.82
2023-03-07T04:58:40.984Z,3.76
2023-03-07T05:01:08.013Z,3.84
2023-03-07T05:03:35.952Z,3.94
2023-03-07T05:06:10.382Z,3.87
2023-03-07T05:08:37.440Z,3.83
2023-03-07T05:11:04.272Z,3.80
2023-03-07T05:13:31.845Z,3.87
2023-03-07T05:15:59.524Z,3.90
2023-03-07T05:18:28.031Z,3.79
2023-03-07T05:20:56.877Z,3.88
2023-03-07T05:23:23.906Z,3.93
2023-03-07T05:25:51.704Z,3.90
2023-03-07T05:28:18.995Z,3.98
2023-03-07T05:30:46.780Z,3.93
2023-03-07T05:33:14.198Z,4.07
2023-03-07T05:35:42.019Z,3.91
2023-03-07T05:38:10.661Z,3.99
2023-03-07T05:40:37.461Z,3.96
2023-03-07T05:43:04.907Z,4.02
2023-03-07T05:45:32.162Z,3.91
2023-03-07T05:48:00.257Z,3.94
2023-03-07T05:50:27.173Z,4.07
2023-03-07T05:52:54.257Z,4.00
2023-03-07T05:55:23.852Z,3.92
2023-03-07T05:57:50.749Z,4.04
2023-03-07T06:00:18.168Z,4.26
2023-03-07T06:02:52.718Z,4.18
2023-03-07T06:05:19.591Z,4.26
2023-03-07T06:07:46.762Z,4.25
2023-03-07T06:10:14.866Z,4.12
2023-03-07T06:12:41.850Z,4.19
2023-03-07T06:15:09.000Z,4.20
2023-03-07T06:17:36.347Z,4.46
2023-03-07T06:20:04.194Z,4.59
2023-03-07T06:22:32.118Z,4.75
2023-03-07T06:24:59.103Z,4.64
2023-03-07T06:27:25.829Z,4.62
2023-03-07T06:29:52.802Z,4.75
2023-03-07T06:32:19.423Z,4.52
2023-03-07T06:34:46.118Z,4.34
2023-03-07T06:37:13.723Z,4.38
2023-03-07T06:39:40.547Z,4.42
2023-03-07T06:42:07.169Z,4.30
2023-03-07T06:44:34.929Z,4.37
2023-03-07T06:47:01.835Z,4.45
2023-03-07T06:49:28.426Z,4.56
2023-03-07T06:51:55.118Z,4.45
2023-03-07T06:54:21.781Z,4.45
2023-03-07T06:56:48.864Z,4.52
2023-03-07T06:59:19.804Z,4.62
2023-03-07T07:01:48.540Z,4.55
2023-03-07T07:04:15.785Z,4.53
2023-03-07T07:06:42.912Z,4.60
2023-03-07T07:09:12.570Z,4.55
2023-03-07T07:11:39.281Z,4.55
2023-03-07T07:14:09.924Z,4.64
2023-03-07T07:16:37.922Z,4.80
2023-03-07T07:19:05.333Z,4.75
2023-03-07T07:21:32.760Z,4.86
2023-03-07T07:23:59.404Z,4.98
2023-03-07T07:26:26.732Z,5.03
2023-03-07T07:28:53.636Z,5.00
2023-03-07T07:31:20.336Z,4.96
2023-03-07T07:33:47.101Z,4.87
2023-03-07T07:36:15.777Z,4.85
2023-03-07T07:38:42.791Z,4.88
2023-03-07T07:41:09.855Z,4.87
2023-03-07T07:43:36.581Z,5.04
2023-03-07T07:46:28.453Z,5.14
2023-03-07T07:48:55.763Z,5.23
2023-03-07T07:51:22.614Z,5.26
2023-03-07T07:53:49.272Z,5.22
2023-03-07T07:56:16.178Z,5.12
2023-03-07T07:58:42.849Z,5.20
2023-03-07T08:01:18.013Z,5.21
2023-03-07T08:03:44.876Z,5.30
2023-03-07T08:06:13.420Z,5.47
2023-03-07T08:08:40.247Z,5.52
2023-03-07T08:11:06.965Z,5.43
2023-03-07T08:13:33.660Z,5.38
2023-03-07T08:16:00.377Z,5.35
2023-03-07T08:18:26.986Z,5.49
2023-03-07T08:20:53.586Z,5.48
2023-03-07T08:23:20.168Z,5.47
2023-03-07T08:25:46.798Z,5.60
2023-03-07T08:28:13.421Z,5.80
2023-03-07T08:30:40.047Z,5.88
2023-03-07T08:33:07.311Z,5.88
2023-03-07T08:35:34.100Z,5.82
2023-03-07T08:38:01.167Z,5.73
2023-03-07T08:40:29.624Z,5.90
2023-03-07T08:42:56.308Z,5.80
2023-03-07T08:45:23.976Z,5.76
2023-03-07T08:47:55.400Z,5.83
2023-03-07T08:50:28.283Z,5.83
2023-03-07T08:52:54.960Z,6.07
2023-03-07T08:55:21.634Z,6.15
2023-03-07T08:57:48.447Z,6.04
2023-03-07T09:00:15.519Z,6.27
2023-03-07T09:02:42.422Z,6.31
2023-03-07T09:05:09.666Z,6.38
2023-03-07T09:07:36.336Z,6.48
2023-03-07T09:10:03.072Z,6.57
2023-03-07T09:12:30.245Z,6.65
2023-03-07T09:14:56.857Z,6.60
2023-03-07T09:17:23.513Z,6.32
2023-03-07T09:19:50.616Z,6.39
2023-03-07T09:22:17.750Z,6.43
2023-03-07T09:24:44.567Z,7.32
2023-03-07T09:27:11.476Z,7.55
2023-03-07T09:29:38.236Z,7.00
2023-03-07T09:32:05.261Z,7.06
2023-03-07T09:34:32.168Z,7.33
2023-03-07T09:36:58.912Z,7.29
2023-03-07T09:39:25.683Z,8.01
2023-03-07T09:42:05.713Z,7.62
2023-03-07T09:44:44.326Z,7.89
2023-03-07T09:48:11.083Z,8.33
2023-03-07T09:50:57.211Z,8.13
2023-03-07T09:53:41.144Z,8.43
2023-03-07T09:56:19.880Z,8.15
2023-03-07T09:58:51.706Z,8.18
2023-03-07T10:01:23.006Z,8.52
2023-03-07T10:04:01.159Z,8.61
2023-03-07T10:06:38.932Z,8.42
2023-03-07T10:09:18.578Z,8.60
2023-03-07T10:12:11.358Z,8.48
2023-03-07T10:15:08.812Z,8.25
2023-03-07T10:17:43.630Z,7.71
2023-03-07T10:20:24.109Z,7.84
2023-03-07T10:23:05.451Z,7.65
2023-03-07T10:25:40.735Z,7.70
2023-03-07T10:28:25.604Z,7.75
2023-03-07T10:30:58.092Z,7.81
2023-03-07T10:33:25.700Z,7.89
2023-03-07T10:36:20.207Z,7.65
2023-03-07T10:38:59.948Z,7.47
2023-03-07T10:41:27.159Z,7.73
2023-03-07T10:43:54.752Z,7.90
2023-03-07T10:46:27.504Z,7.90
2023-03-07T10:49:09.468Z,7.80
2023-03-07T10:51:50.543Z,7.68
2023-03-07T10:54:21.284Z,7.62
2023-03-07T10:57:05.523Z,7.55
2023-03-07T10:59:32.472Z,7.50
2023-03-07T11:02:01.302Z,7.57
2023-03-07T11:04:30.332Z,7.60
2023-03-07T11:07:00.503Z,7.58
2023-03-07T11:09:34.809Z,7.77
2023-03-07T11:12:04.644Z,7.48
2023-03-07T11:14:46.710Z,7.65
2023-03-07T11:17:25.158Z,7.65
2023-03-07T11:19:56.840Z,7.57
2023-03-07T11:22:27.517Z,7.69
2023-03-07T11:25:12.468Z,7.82
2023-03-07T11:27:54.388Z,7.87
2023-03-07T11:30:34.285Z,7.83
2023-03-07T11:33:15.520Z,8.02
2023-03-07T11:36:01.839Z,7.97
2023-03-07T11:38:55.106Z,7.84
2023-03-07T11:41:29.600Z,7.86
2023-03-07T11:44:25.835Z,7.87
2023-03-07T11:47:12.241Z,8.03
2023-03-07T11:49:45.388Z,8.03
2023-03-07T11:52:30.903Z,7.80
2023-03-07T11:55:20.880Z,8.07
2023-03-07T11:57:56.467Z,8.11
2023-03-07T12:00:32.448Z,7.82
2023-03-07T12:03:30.345Z,7.81
2023-03-07T12:06:11.107Z,7.90
2023-03-07T12:08:41.967Z,7.61
2023-03-07T12:11:27.158Z,7.68
2023-03-07T12:14:22.972Z,7.72
2023-03-07T12:17:10.563Z,7.68
2023-03-07T12:19:40.086Z,7.78
2023-03-07T12:22:22.049Z,7.72
2023-03-07T12:25:22.428Z,7.73
2023-03-07T12:28:15.878Z,7.86
2023-03-07T12:30:59.102Z,7.93
2023-03-07T12:33:39.558Z,7.65
2023-03-07T12:36:11.641Z,7.81
2023-03-07T12:39:13.416Z,7.77
2023-03-07T12:41:49.070Z,7.76
2023-03-07T12:44:42.951Z,7.88
2023-03-07T12:47:32.143Z,7.66
2023-03-07T12:50:14.938Z,7.62
2023-03-07T12:53:18.710Z,7.85
2023-03-07T12:55:55.757Z,7.70
2023-03-07T12:58:49.393Z,7.84
2023-03-07T13:01:23.213Z,7.76
2023-03-07T13:04:11.265Z,7.68
2023-03-07T13:06:39.801Z,7.62
2023-03-07T13:09:08.067Z,7.59
2023-03-07T13:11:34.866Z,7.68
2023-03-07T13:14:03.261Z,7.63
2023-03-07T13:16:44.781Z,7.71
2023-03-07T13:19:39.343Z,7.85
2023-03-07T13:22:14.732Z,7.98
2023-03-07T13:24:43.104Z,7.86
2023-03-07T13:27:18.469Z,7.73
2023-03-07T13:30:09.894Z,7.67
2023-03-07T13:32:51.694Z,7.76
2023-03-07T13:35:30.539Z,7.82
2023-03-07T13:38:15.498Z,7.70
2023-03-07T13:40:46.197Z,7.83
2023-03-07T13:43:19.242Z,7.79
2023-03-07T13:46:02.043Z,7.84
2023-03-07T13:48:31.030Z,7.79
2023-03-07T13:51:00.603Z,7.70
2023-03-07T13:53:39.445Z,7.79
2023-03-07T13:56:15.432Z,7.73
2023-03-07T13:59:06.869Z,7.78
2023-03-07T14:01:53.371Z,7.82
2023-03-07T14:04:41.099Z,7.72
2023-03-07T14:07:16.293Z,7.75
2023-03-07T14:09:49.830Z,7.89
2023-03-07T14:12:34.417Z,7.72
2023-03-07T14:15:22.490Z,7.71
2023-03-07T14:18:15.275Z,7.63
2023-03-07T14:20:59.627Z,7.64
2023-03-07T14:23:52.630Z,7.55
2023-03-07T14:26:36.874Z,7.62
2023-03-07T14:29:18.956Z,7.68
2023-03-07T14:31:46.838Z,7.59
2023-03-07T14:34:31.479Z,7.54
2023-03-07T14:37:16.841Z,7.45
2023-03-07T14:40:09.850Z,7.38
2023-03-07T14:42:47.997Z,7.38
2023-03-07T14:45:24.251Z,7.56
2023-03-07T14:48:06.235Z,7.57
2023-03-07T14:50:34.097Z,7.50
2023-03-07T14:53:23.376Z,7.36
2023-03-07T14:55:52.669Z,7.36
2023-03-07T14:58:29.277Z,7.33
2023-03-07T15:01:04.337Z,7.25
2023-03-07T15:03:32.110Z,7.24
2023-03-07T15:06:01.476Z,7.41
2023-03-07T15:08:35.195Z,7.15
2023-03-07T15:11:33.900Z,7.25
2023-03-07T15:14:08.624Z,7.42
2023-03-07T15:16:44.680Z,7.34
2023-03-07T15:19:19.232Z,7.33
2023-03-07T15:21:57.553Z,7.44
2023-03-07T15:24:36.496Z,7.37
2023-03-07T15:27:04.801Z,7.24
2023-03-07T15:29:33.119Z,7.37
2023-03-07T15:32:07.126Z,7.51
2023-03-07T15:34:37.291Z,7.51
2023-03-07T15:37:24.438Z,7.23
2023-03-07T15:40:09.240Z,7.09
2023-03-07T15:42:56.775Z,7.21
2023-03-07T15:45:38.543Z,7.20
2023-03-07T15:48:25.817Z,7.32
2023-03-07T15:51:06.302Z,7.15
2023-03-07T15:53:43.248Z,7.10
2023-03-07T15:56:37.494Z,7.25
2023-03-07T15:59:09.979Z,6.97
2023-03-07T16:01:36.659Z,6.87
2023-03-07T16:04:04.345Z,7.07
2023-03-07T16:06:38.670Z,7.09
2023-03-07T16:09:06.793Z,7.04
2023-03-07T16:11:33.729Z,7.00
2023-03-07T16:14:01.020Z,7.14
2023-03-07T16:16:30.082Z,6.99
2023-03-07T16:18:58.169Z,6.74
2023-03-07T16:21:26.266Z,6.84
2023-03-07T16:23:53.038Z,6.96
2023-03-07T16:26:22.575Z,7.01
2023-03-07T16:28:50.868Z,7.08
2023-03-07T16:31:18.762Z,7.12
2023-03-07T16:33:46.813Z,7.10
2023-03-07T16:36:14.938Z,7.08
2023-03-07T16:38:41.942Z,7.06
2023-03-07T16:41:21.088Z,7.20
2023-03-07T16:43:57.726Z,7.04
2023-03-07T16:46:26.002Z,7.02
2023-03-07T16:48:52.823Z,7.07
2023-03-07T16:51:21.833Z,7.04
2023-03-07T16:53:50.458Z,7.08
2023-03-07T16:56:27.346Z,7.09
2023-03-07T16:58:54.046Z,7.06
2023-03-07T17:01:20.693Z,7.23
2023-03-07T17:03:47.469Z,7.16
2023-03-07T17:06:16.484Z,7.15
2023-03-07T17:08:44.659Z,7.23
2023-03-07T17:11:20.828Z,7.14
2023-03-07T17:13:49.380Z,7.11
2023-03-07T17:16:17.015Z,7.17
2023-03-07T17:18:44.630Z,7.21
2023-03-07T17:21:16.843Z,7.05
2023-03-07T17:23:45.009Z,7.10
2023-03-07T17:26:19.061Z,7.00
2023-03-07T17:28:46.559Z,7.09
2023-03-07T17:31:13.457Z,7.07
2023-03-07T17:33:40.131Z,7.02
2023-03-07T17:36:12.265Z,7.02
2023-03-07T17:38:39.068Z,7.03
2023-03-07T17:41:05.701Z,7.00
2023-03-07T17:43:33.425Z,7.06
2023-03-07T17:46:00.742Z,7.11
2023-03-07T17:48:27.577Z,7.00
2023-03-07T17:50:54.296Z,7.05
2023-03-07T17:53:20.943Z,7.10
2023-03-07T17:55:47.668Z,6.95
2023-03-07T17:58:14.435Z,6.88
2023-03-07T18:00:41.072Z,6.95
2023-03-07T18:03:07.699Z,6.97
2023-03-07T18:05:34.333Z,6.91
2023-03-07T18:08:00.990Z,6.97
2023-03-07T18:10:28.312Z,6.91
2023-03-07T18:12:55.066Z,7.04
2023-03-07T18:15:22.836Z,7.00
2023-03-07T18:17:50.203Z,6.95
2023-03-07T18:20:19.217Z,7.06
2023-03-07T18:22:46.003Z,7.05
2023-03-07T18:25:15.756Z,6.99
2023-03-07T18:27:43.111Z,6.91
2023-03-07T18:30:11.781Z,6.91
2023-03-07T18:32:38.698Z,6.86
2023-03-07T18:35:06.332Z,6.91
2023-03-07T18:37:32.960Z,6.95
2023-03-07T18:39:59.761Z,7.01
2023-03-07T18:42:27.333Z,7.08
2023-03-07T18:44:54.484Z,7.15
2023-03-07T18:47:21.218Z,7.10
2023-03-07T18:49:53.898Z,7.13
2023-03-07T18:52:20.646Z,7.08
2023-03-07T18:54:48.574Z,7.00
2023-03-07T18:57:15.682Z,7.13
2023-03-07T18:59:42.515Z,7.00
2023-03-07T19:02:09.946Z,6.97
2023-03-07T19:04:36.660Z,7.02
2023-03-07T19:07:03.983Z,6.97
2023-03-07T19:09:31.597Z,6.77
2023-03-07T19:11:58.282Z,6.86
2023-03-07T19:14:26.300Z,6.86
2023-03-07T19:16:53.333Z,6.91
2023-03-07T19:19:20.155Z,6.83
2023-03-07T19:21:46.745Z,6.84
2023-03-07T19:24:14.731Z,6.91
2023-03-07T19:26:43.173Z,6.90
2023-03-07T19:29:12.934Z,6.70
2023-03-07T19:31:43.398Z,6.66
2023-03-07T19:34:10.302Z,6.64
2023-03-07T19:36:38.403Z,6.70
2023-03-07T19:39:05.654Z,6.69
2023-03-07T19:41:32.948Z,6.76
2023-03-07T19:44:00.567Z,6.67
2023-03-07T19:46:27.756Z,6.70
2023-03-07T19:48:54.476Z,6.66
2023-03-07T19:51:23.562Z,6.70
2023-03-07T19:53:51.081Z,6.61
2023-03-07T19:56:24.342Z,6.53
2023-03-07T19:58:51.216Z,6.64
2023-03-07T20:01:19.652Z,6.77
2023-03-07T20:03:47.381Z,6.67
2023-03-07T20:06:24.324Z,6.66
2023-03-07T20:08:52.662Z,6.75
2023-03-07T20:11:27.060Z,6.68
2023-03-07T20:13:55.891Z,6.77
2023-03-07T20:16:22.780Z,6.78
2023-03-07T20:18:50.867Z,6.70
2023-03-07T20:21:18.703Z,6.71
2023-03-07T20:23:47.019Z,6.67
2023-03-07T20:26:16.739Z,6.65
2023-03-07T20:28:43.720Z,6.72
2023-03-07T20:31:11.150Z,6.65
2023-03-07T20:33:39.732Z,6.52
2023-03-07T20:36:09.828Z,6.57
2023-03-07T20:38:37.328Z,6.66
2023-03-07T20:41:14.240Z,6.60
2023-03-07T20:43:40.904Z,6.55
2023-03-07T20:46:13.184Z,6.70
2023-03-07T20:48:41.125Z,6.59
2023-03-07T20:51:20.644Z,6.52
2023-03-07T20:53:49.257Z,6.55
2023-03-07T20:56:17.013Z,6.54
2023-03-07T20:58:43.902Z,6.51
2023-03-07T21:01:11.764Z,6.57
2023-03-07T21:03:38.579Z,6.54
2023-03-07T21:06:05.832Z,6.56
2023-03-07T21:08:35.479Z,6.70
2023-03-07T21:11:05.230Z,6.65
2023-03-07T21:13:34.849Z,6.55
2023-03-07T21:16:10.515Z,6.57
2023-03-07T21:18:37.938Z,6.67
2023-03-07T21:21:07.245Z,6.53
2023-03-07T21:23:34.423Z,6.55
2023-03-07T21:26:06.083Z,6.59
2023-03-07T21:28:34.176Z,6.65
2023-03-07T21:31:18.042Z,6.70
2023-03-07T21:33:47.281Z,6.72
2023-03-07T21:36:16.212Z,6.67
2023-03-07T21:38:44.754Z,6.55
2023-03-07T21:41:12.368Z,6.50
2023-03-07T21:43:39.127Z,6.53
2023-03-07T21:46:07.655Z,6.54
2023-03-07T21:48:34.597Z,6.56
2023-03-07T21:51:01.650Z,6.61
2023-03-07T21:53:29.046Z,6.64
2023-03-07T21:56:04.200Z,6.63
2023-03-07T21:58:31.636Z,6.74
2023-03-07T22:00:58.849Z,6.71
2023-03-07T22:03:27.305Z,6.65
2023-03-07T22:05:56.882Z,6.57
2023-03-07T22:08:24.090Z,6.59
2023-03-07T22:11:00.157Z,6.62
2023-03-07T22:13:27.971Z,6.65
2023-03-07T22:15:59.481Z,6.57
2023-03-07T22:18:26.708Z,6.54
2023-03-07T22:20:55.070Z,6.59
2023-03-07T22:23:23.043Z,6.52
2023-03-07T22:25:49.736Z,6.58
2023-03-07T22:28:19.190Z,6.51
2023-03-07T22:30:47.241Z,6.56
2023-03-07T22:33:13.960Z,6.54
2023-03-07T22:35:40.653Z,6.55
2023-03-07T22:38:27.499Z,6.65
2023-03-07T22:40:54.421Z,6.54
2023-03-07T22:43:21.088Z,6.48
2023-03-07T22:45:51.881Z,6.48
2023-03-07T22:48:18.959Z,6.55
2023-03-07T22:50:45.561Z,6.53
2023-03-07T22:53:12.328Z,6.50
2023-03-07T22:55:43.428Z,6.59
2023-03-07T22:58:11.230Z,6.53
2023-03-07T23:00:40.858Z,6.42
2023-03-07T23:03:07.561Z,6.39
2023-03-07T23:05:34.775Z,6.48
2023-03-07T23:08:02.414Z,6.50
2023-03-07T23:10:29.934Z,6.53
2023-03-07T23:12:56.604Z,6.52
2023-03-07T23:15:24.514Z,6.30
2023-03-07T23:17:51.703Z,6.44
2023-03-07T23:20:25.328Z,6.45
2023-03-07T23:22:52.896Z,6.41
2023-03-07T23:25:20.137Z,6.42
2023-03-07T23:27:46.783Z,6.49
2023-03-07T23:30:13.723Z,6.48
2023-03-07T23:32:40.367Z,6.48
2023-03-07T23:35:07.396Z,6.45
2023-03-07T23:37:34.125Z,6.39
2023-03-07T23:40:01.497Z,6.25
2023-03-07T23:42:28.269Z,6.36
2023-03-07T23:44:55.014Z,6.41
2023-03-07T23:47:21.606Z,6.32
2023-03-07T23:49:48.120Z,6.31
2023-03-07T23:52:14.698Z,6.43
2023-03-07T23:54:44.612Z,6.46
2023-03-07T23:57:11.232Z,6.32
2023-03-07T23:59:37.769Z,6.37
